Time;durP1;ratioP1;P1;durP2;ratioP2;P2;SDS_P1;SDS_P2;PMS_P1;PMS_P2;Temp;Humidity;BMP_temperature;BMP_pressure;BME280_temperature;BME280_humidity;BME280_pressure;Samples;Min_cycle;Max_cycle;Signal;HPM_P1;HPM_P2
2021/12/29 00:01:25;;;;;;;15.33;8.80;;;4.60;99.90;;;;;;5054663;28;20495;-52
2021/12/29 00:03:53;;;;;;;11.90;8.60;;;4.60;99.90;;;;;;5055209;28;20564;-49
2021/12/29 00:06:20;;;;;;;19.50;7.90;;;4.60;99.90;;;;;;5054912;28;20457;-51
2021/12/29 00:08:47;;;;;;;18.40;11.60;;;4.50;99.90;;;;;;5054592;28;20460;-52
2021/12/29 00:11:13;;;;;;;19.53;9.47;;;4.50;99.90;;;;;;5055083;28;20495;-48
2021/12/29 00:13:41;;;;;;;19.57;10.53;;;4.50;99.90;;;;;;5054752;28;20425;-48
2021/12/29 00:16:08;;;;;;;21.57;10.53;;;4.50;99.90;;;;;;5055227;28;20464;-48
2021/12/29 00:18:36;;;;;;;21.57;9.57;;;4.50;99.90;;;;;;5054416;28;20472;-45
2021/12/29 00:21:05;;;;;;;20.73;8.67;;;4.60;99.90;;;;;;5054678;28;20948;-51
2021/12/29 00:23:32;;;;;;;20.67;9.60;;;4.60;99.90;;;;;;5053949;28;20461;-49
2021/12/29 00:25:59;;;;;;;16.50;9.10;;;4.60;99.90;;;;;;5054538;28;20437;-50
2021/12/29 00:28:26;;;;;;;27.80;11.17;;;4.50;99.90;;;;;;5054374;28;20465;-48
2021/12/29 00:30:54;;;;;;;19.30;9.70;;;4.50;99.90;;;;;;5054611;28;20445;-49
2021/12/29 00:33:21;;;;;;;15.07;9.20;;;4.50;99.90;;;;;;5054221;28;20463;-51
2021/12/29 00:35:48;;;;;;;14.70;7.10;;;4.50;99.90;;;;;;5054122;28;20456;-47
2021/12/29 00:38:16;;;;;;;18.53;10.40;;;4.50;99.90;;;;;;5057080;28;20490;-49
2021/12/29 00:40:43;;;;;;;25.43;12.67;;;4.50;99.90;;;;;;5057407;28;20462;-49
2021/12/29 00:43:12;;;;;;;26.93;12.47;;;4.50;99.90;;;;;;5057518;28;20471;-49
2021/12/29 00:45:42;;;;;;;14.40;8.30;;;4.50;99.90;;;;;;5057603;28;20498;-49
2021/12/29 00:48:13;;;;;;;22.33;11.10;;;4.60;99.90;;;;;;5057870;28;20451;-49
2021/12/29 00:50:40;;;;;;;24.37;10.83;;;4.60;99.90;;;;;;5058022;28;20474;-49
2021/12/29 00:53:08;;;;;;;17.40;9.47;;;4.60;99.90;;;;;;5057443;28;20500;-48
2021/12/29 00:55:35;;;;;;;24.27;9.60;;;4.60;99.90;;;;;;5057622;28;20432;-44
2021/12/29 00:58:02;;;;;;;18.67;9.07;;;4.70;99.90;;;;;;5057674;28;20469;-45
2021/12/29 01:00:29;;;;;;;14.50;9.83;;;4.70;99.90;;;;;;5057425;28;20510;-47
2021/12/29 01:02:58;;;;;;;15.27;7.97;;;4.70;99.90;;;;;;5057272;28;20495;-48
2021/12/29 01:05:27;;;;;;;13.67;8.70;;;4.70;99.90;;;;;;5056950;28;20436;-43
2021/12/29 01:07:56;;;;;;;13.40;8.00;;;4.70;99.90;;;;;;5057091;28;20460;-45
2021/12/29 01:10:22;;;;;;;16.70;9.27;;;4.70;99.90;;;;;;5058326;28;20451;-51
2021/12/29 01:12:53;;;;;;;14.43;8.77;;;4.80;99.90;;;;;;5058183;28;20460;-45
2021/12/29 01:15:25;;;;;;;16.97;7.70;;;4.80;99.90;;;;;;5057933;28;20460;-47
2021/12/29 01:17:53;;;;;;;17.73;8.97;;;4.80;99.90;;;;;;5058554;28;20475;-45
2021/12/29 01:20:21;;;;;;;23.33;8.20;;;4.80;99.90;;;;;;5058177;28;20420;-49
2021/12/29 01:22:50;;;;;;;26.03;9.30;;;4.70;99.90;;;;;;5058026;28;20441;-46
2021/12/29 01:25:21;;;;;;;16.57;9.07;;;4.70;99.90;;;;;;5057381;28;20445;-47
2021/12/29 01:27:51;;;;;;;18.47;8.50;;;4.60;99.90;;;;;;5057341;28;20753;-49
2021/12/29 01:30:18;;;;;;;18.00;9.50;;;4.70;99.90;;;;;;5057447;28;20494;-50
2021/12/29 01:32:45;;;;;;;19.83;8.17;;;4.70;99.90;;;;;;5057505;28;20425;-45
2021/12/29 01:35:13;;;;;;;16.07;10.00;;;4.70;99.90;;;;;;5057268;28;20472;-51
2021/12/29 01:37:40;;;;;;;27.30;10.50;;;4.70;99.90;;;;;;5056782;28;20500;-46
2021/12/29 01:40:12;;;;;;;13.97;7.70;;;4.70;99.90;;;;;;5056702;28;20520;-46
2021/12/29 01:42:41;;;;;;;14.07;8.43;;;4.70;99.90;;;;;;5057394;28;20492;-49
2021/12/29 01:45:09;;;;;;;15.33;7.73;;;4.70;99.90;;;;;;5056993;28;20510;-51
2021/12/29 01:47:37;;;;;;;16.37;8.07;;;4.60;99.90;;;;;;5056538;28;20464;-49
2021/12/29 01:50:05;;;;;;;19.33;10.10;;;4.60;99.90;;;;;;5056965;28;20487;-46
2021/12/29 01:52:37;;;;;;;15.30;7.17;;;4.70;99.90;;;;;;5056682;28;20497;-45
2021/12/29 01:55:06;;;;;;;19.17;9.27;;;4.70;99.90;;;;;;5056976;28;20457;-51
2021/12/29 01:57:35;;;;;;;20.37;8.63;;;4.70;99.90;;;;;;5056827;28;20479;-49
2021/12/29 02:00:04;;;;;;;19.83;8.67;;;4.60;99.90;;;;;;5056913;28;20468;-44
2021/12/29 02:02:31;;;;;;;20.50;6.60;;;4.60;99.90;;;;;;5056812;28;20455;-48
2021/12/29 02:04:58;;;;;;;12.43;6.90;;;4.60;99.90;;;;;;5056767;28;20496;-49
2021/12/29 02:07:25;;;;;;;14.30;7.73;;;4.70;99.90;;;;;;5056910;28;20457;-49
2021/12/29 02:09:52;;;;;;;18.70;9.03;;;4.70;99.90;;;;;;5057241;28;20455;-44
2021/12/29 02:12:20;;;;;;;11.17;8.27;;;4.60;99.90;;;;;;5057462;28;20445;-52
2021/12/29 02:14:48;;;;;;;17.30;7.50;;;4.60;99.90;;;;;;5040308;28;20476;-51
2021/12/29 02:17:15;;;;;;;16.93;10.60;;;4.70;99.90;;;;;;5056277;28;20508;-47
2021/12/29 02:19:46;;;;;;;10.90;5.60;;;4.70;99.90;;;;;;5056532;28;20488;-51
2021/12/29 02:22:28;;;;;;;10.00;6.87;;;4.70;99.90;;;;;;5057001;28;20589;-49
2021/12/29 02:25:07;;;;;;;12.67;7.07;;;4.80;99.90;;;;;;5057231;28;20452;-51
2021/12/29 02:27:36;;;;;;;16.20;8.07;;;4.80;99.90;;;;;;5056783;28;20549;-50
2021/12/29 02:30:04;;;;;;;15.60;8.00;;;4.80;99.90;;;;;;5056697;28;20455;-48
2021/12/29 02:32:32;;;;;;;13.30;7.53;;;4.80;99.90;;;;;;5055777;28;20732;-49
2021/12/29 02:34:59;;;;;;;12.50;5.83;;;4.80;99.90;;;;;;5056238;28;20471;-50
2021/12/29 02:37:30;;;;;;;11.20;6.73;;;4.90;99.90;;;;;;5055713;28;20483;-50
2021/12/29 02:39:57;;;;;;;11.83;7.03;;;5.00;99.90;;;;;;5056211;28;20449;-48
2021/12/29 02:42:28;;;;;;;12.23;6.40;;;5.00;99.90;;;;;;5056503;28;20459;-50
2021/12/29 02:44:55;;;;;;;13.47;6.77;;;5.00;99.90;;;;;;5056687;28;20433;-57
2021/12/29 02:47:22;;;;;;;12.13;6.27;;;5.00;99.90;;;;;;5056175;28;20471;-52
2021/12/29 02:49:55;;;;;;;12.00;6.77;;;5.00;99.90;;;;;;5056111;28;20425;-50
2021/12/29 02:52:24;;;;;;;12.63;7.10;;;5.00;99.90;;;;;;5056083;28;20467;-54
2021/12/29 02:54:56;;;;;;;15.23;9.37;;;5.00;99.90;;;;;;5055617;28;20452;-44
2021/12/29 02:57:23;;;;;;;11.17;8.00;;;5.10;99.90;;;;;;5055795;28;20433;-51
2021/12/29 02:59:49;;;;;;;15.53;6.80;;;5.10;99.90;;;;;;5055137;28;20488;-51
2021/12/29 03:02:16;;;;;;;8.37;6.33;;;5.10;99.90;;;;;;5055651;28;20471;-51
2021/12/29 03:04:43;;;;;;;6.33;5.10;;;5.10;99.90;;;;;;5054968;28;20484;-50
2021/12/29 03:07:09;;;;;;;8.63;6.17;;;5.10;99.90;;;;;;5055240;28;20441;-47
2021/12/29 03:09:36;;;;;;;14.53;7.33;;;5.10;99.90;;;;;;5055610;28;20417;-49
2021/12/29 03:12:05;;;;;;;13.90;7.97;;;5.10;99.90;;;;;;5054714;28;20433;-46
2021/12/29 03:14:33;;;;;;;12.57;7.23;;;5.10;99.90;;;;;;5054924;28;20465;-47
2021/12/29 03:16:59;;;;;;;12.00;6.30;;;5.20;99.90;;;;;;5055156;28;20449;-46
2021/12/29 03:19:28;;;;;;;12.60;7.43;;;5.20;99.90;;;;;;5054813;28;20481;-48
2021/12/29 03:21:56;;;;;;;12.97;6.57;;;5.20;99.90;;;;;;5055369;28;20464;-49
2021/12/29 03:24:23;;;;;;;11.40;5.40;;;5.20;99.90;;;;;;5055080;28;20445;-48
2021/12/29 03:26:49;;;;;;;10.93;5.37;;;5.20;99.90;;;;;;5054587;28;20494;-43
2021/12/29 03:29:17;;;;;;;11.63;5.80;;;5.30;99.90;;;;;;5055316;28;20460;-47
2021/12/29 03:31:44;;;;;;;12.73;6.73;;;5.30;99.90;;;;;;5055226;28;20456;-50
2021/12/29 03:34:11;;;;;;;12.07;6.30;;;5.30;99.90;;;;;;5055169;28;20413;-49
2021/12/29 03:36:38;;;;;;;7.70;5.17;;;5.40;99.90;;;;;;5055290;28;20441;-46
2021/12/29 03:39:05;;;;;;;11.37;5.73;;;5.40;99.90;;;;;;5054583;28;20503;-47
2021/12/29 03:41:31;;;;;;;10.53;6.87;;;5.50;99.90;;;;;;5054690;28;20455;-47
2021/12/29 03:43:58;;;;;;;9.67;6.03;;;5.50;99.90;;;;;;5055294;28;20503;-47
2021/12/29 03:46:27;;;;;;;12.53;6.10;;;5.60;99.90;;;;;;5054806;28;20445;-50
2021/12/29 03:48:54;;;;;;;7.50;4.87;;;5.60;99.90;;;;;;5054328;28;20499;-51
2021/12/29 03:51:21;;;;;;;7.23;4.47;;;5.50;99.90;;;;;;5054623;28;20432;-48
2021/12/29 03:53:48;;;;;;;9.83;5.50;;;5.60;99.90;;;;;;5053940;28;20444;-51
2021/12/29 03:56:14;;;;;;;12.00;5.83;;;5.60;99.90;;;;;;5054556;28;20487;-52
2021/12/29 03:58:44;;;;;;;5.67;4.10;;;5.70;99.90;;;;;;5054707;28;20476;-47
2021/12/29 04:01:13;;;;;;;10.57;5.13;;;5.70;99.90;;;;;;5054445;28;20456;-52
2021/12/29 04:03:42;;;;;;;9.70;4.20;;;5.70;99.90;;;;;;5055186;28;20438;-45
2021/12/29 04:06:09;;;;;;;9.67;5.77;;;5.70;99.90;;;;;;5054598;28;20502;-45
2021/12/29 04:08:36;;;;;;;12.53;6.13;;;5.60;99.90;;;;;;5054496;28;20461;-47
2021/12/29 04:11:03;;;;;;;9.77;5.63;;;5.50;99.90;;;;;;5055253;28;20491;-50
2021/12/29 04:13:32;;;;;;;11.30;5.97;;;5.50;99.90;;;;;;5058148;28;20452;-45
2021/12/29 04:16:01;;;;;;;7.67;4.80;;;5.60;99.90;;;;;;5058470;28;20483;-48
2021/12/29 04:18:30;;;;;;;8.87;5.80;;;5.50;99.90;;;;;;5058103;28;20444;-46
2021/12/29 04:21:03;;;;;;;8.80;5.27;;;5.50;99.90;;;;;;5057964;28;20472;-47
2021/12/29 04:23:33;;;;;;;18.47;5.27;;;5.50;99.90;;;;;;5058358;28;20475;-50
2021/12/29 04:26:02;;;;;;;11.87;6.93;;;5.50;99.90;;;;;;5058346;28;20440;-52
2021/12/29 04:28:29;;;;;;;8.83;5.97;;;5.50;99.90;;;;;;5058167;28;20457;-45
2021/12/29 04:30:58;;;;;;;8.60;5.33;;;5.50;99.90;;;;;;5059185;28;20456;-47
2021/12/29 04:33:26;;;;;;;7.77;5.10;;;5.50;99.90;;;;;;5058713;28;20465;-46
2021/12/29 04:35:53;;;;;;;10.30;5.57;;;5.50;99.90;;;;;;5058550;28;20459;-47
2021/12/29 04:38:24;;;;;;;11.80;5.80;;;5.50;99.90;;;;;;5059230;28;20456;-47
2021/12/29 04:40:52;;;;;;;9.17;5.60;;;5.50;99.90;;;;;;5058287;28;20536;-46
2021/12/29 04:43:19;;;;;;;11.77;6.10;;;5.50;99.90;;;;;;5058847;28;20475;-45
2021/12/29 04:45:47;;;;;;;12.47;7.53;;;5.50;99.90;;;;;;5058737;28;20472;-48
2021/12/29 04:48:17;;;;;;;8.50;6.30;;;5.50;99.90;;;;;;5058358;28;20444;-46
2021/12/29 04:50:52;;;;;;;9.93;5.97;;;5.50;99.90;;;;;;5058508;28;20495;-50
2021/12/29 04:53:22;;;;;;;9.10;5.73;;;5.50;99.90;;;;;;5057723;28;20452;-43
2021/12/29 04:55:50;;;;;;;7.60;4.67;;;5.50;99.90;;;;;;5058224;28;20464;-49
2021/12/29 04:58:20;;;;;;;9.57;5.93;;;5.60;99.90;;;;;;5058036;28;20421;-44
2021/12/29 05:00:48;;;;;;;10.50;5.93;;;5.60;99.90;;;;;;5058172;28;20490;-50
2021/12/29 05:03:16;;;;;;;10.67;6.20;;;5.50;99.90;;;;;;5057351;28;20456;-49
2021/12/29 05:05:55;;;;;;;8.40;4.93;;;5.50;99.90;;;;;;5057600;28;20491;-44
2021/12/29 05:08:25;;;;;;;11.57;6.77;;;5.50;99.90;;;;;;5057950;28;20497;-50
2021/12/29 05:11:03;;;;;;;11.17;6.37;;;5.50;99.90;;;;;;5057060;28;20421;-47
2021/12/29 05:13:32;;;;;;;10.67;5.83;;;5.50;99.90;;;;;;5055345;28;20487;-46
2021/12/29 05:15:59;;;;;;;7.53;4.80;;;5.50;99.90;;;;;;5041321;28;20455;-48
2021/12/29 05:18:28;;;;;;;8.77;5.23;;;5.50;99.90;;;;;;5041240;28;20483;-47
2021/12/29 05:20:56;;;;;;;9.50;5.80;;;5.60;99.90;;;;;;5040674;28;20576;-44
2021/12/29 05:23:24;;;;;;;8.40;5.33;;;5.50;99.90;;;;;;5039950;28;20463;-49
2021/12/29 05:25:52;;;;;;;13.17;6.13;;;5.50;99.90;;;;;;5041083;28;20444;-51
2021/12/29 05:28:20;;;;;;;7.20;4.40;;;5.50;99.90;;;;;;5040849;28;20453;-47
2021/12/29 05:30:49;;;;;;;10.20;5.10;;;5.50;99.90;;;;;;5040656;28;20552;-49
2021/12/29 05:33:17;;;;;;;10.50;6.00;;;5.50;99.90;;;;;;5041197;28;20448;-48
2021/12/29 05:35:44;;;;;;;11.83;5.47;;;5.50;99.90;;;;;;5040872;28;20945;-49
2021/12/29 05:38:11;;;;;;;10.30;4.73;;;5.60;99.90;;;;;;5040846;28;20482;-49
2021/12/29 05:40:38;;;;;;;7.37;5.10;;;5.60;99.90;;;;;;5041182;28;20484;-46
2021/12/29 05:43:06;;;;;;;9.50;5.23;;;5.60;99.90;;;;;;5040755;28;20510;-48
2021/12/29 05:45:33;;;;;;;8.20;5.07;;;5.50;99.90;;;;;;5040745;28;20469;-47
2021/12/29 05:48:01;;;;;;;8.27;5.67;;;5.60;99.90;;;;;;5041355;28;20516;-46
2021/12/29 05:50:30;;;;;;;9.40;6.00;;;5.60;99.90;;;;;;5041471;28;20451;-46
2021/12/29 05:52:57;;;;;;;7.00;4.73;;;5.60;99.90;;;;;;5040776;28;20445;-45
2021/12/29 05:55:25;;;;;;;6.50;4.33;;;5.60;99.90;;;;;;5041192;28;20421;-60
2021/12/29 05:57:53;;;;;;;8.27;4.93;;;5.50;99.90;;;;;;5041866;28;20809;-60
2021/12/29 06:00:22;;;;;;;14.30;5.50;;;5.60;99.90;;;;;;5041734;28;20550;-57
2021/12/29 06:02:50;;;;;;;9.50;4.60;;;5.60;99.90;;;;;;5040842;28;20465;-60
2021/12/29 06:05:19;;;;;;;6.87;4.90;;;5.60;99.90;;;;;;5040813;28;20519;-57
2021/12/29 06:07:46;;;;;;;8.80;3.90;;;5.60;99.90;;;;;;5040941;28;20444;-60
2021/12/29 06:10:13;;;;;;;5.47;3.90;;;5.60;99.90;;;;;;5040989;28;20424;-60
2021/12/29 06:12:40;;;;;;;6.73;4.73;;;5.60;99.90;;;;;;5040538;28;20444;-59
2021/12/29 06:15:08;;;;;;;6.20;4.10;;;5.60;99.90;;;;;;5041682;28;20456;-59
2021/12/29 06:17:37;;;;;;;7.67;4.77;;;5.70;99.90;;;;;;5041163;28;20462;-61
2021/12/29 06:20:05;;;;;;;14.87;5.40;;;5.70;99.90;;;;;;5040946;28;20977;-59
2021/12/29 06:22:32;;;;;;;7.20;4.10;;;5.70;99.90;;;;;;5040645;28;20480;-58
2021/12/29 06:24:59;;;;;;;21.27;4.77;;;5.70;99.90;;;;;;5040753;28;20476;-60
2021/12/29 06:27:26;;;;;;;9.87;4.23;;;5.70;99.90;;;;;;5040782;28;20527;-60
2021/12/29 06:29:54;;;;;;;10.83;6.13;;;5.60;99.90;;;;;;5040576;28;20448;-59
2021/12/29 06:32:21;;;;;;;11.43;4.70;;;5.70;99.90;;;;;;5041909;28;20511;-59
2021/12/29 06:34:49;;;;;;;7.10;4.20;;;5.70;99.90;;;;;;5041911;28;20453;-59
2021/12/29 06:37:16;;;;;;;11.93;4.87;;;5.80;99.90;;;;;;5041848;28;20472;-59
2021/12/29 06:39:44;;;;;;;8.63;5.00;;;5.80;99.90;;;;;;5041523;28;20831;-57
2021/12/29 06:42:12;;;;;;;6.43;3.60;;;5.80;99.90;;;;;;5041284;28;20461;-60
2021/12/29 06:44:39;;;;;;;5.80;4.10;;;5.80;99.90;;;;;;5040235;28;20547;-56
2021/12/29 06:47:06;;;;;;;6.17;3.67;;;5.80;99.90;;;;;;5040254;28;20539;-59
2021/12/29 06:49:34;;;;;;;5.43;3.43;;;5.80;99.90;;;;;;5039829;28;20445;-59
2021/12/29 06:52:03;;;;;;;9.50;5.10;;;5.80;99.90;;;;;;5040219;28;20444;-59
2021/12/29 06:54:30;;;;;;;5.97;4.53;;;5.80;99.90;;;;;;5040250;28;20679;-59
2021/12/29 06:56:57;;;;;;;6.33;3.63;;;5.80;99.90;;;;;;5040249;28;20476;-58
2021/12/29 06:59:24;;;;;;;8.27;3.73;;;5.80;99.90;;;;;;5039372;28;20470;-58
2021/12/29 07:01:51;;;;;;;8.20;3.97;;;5.80;99.90;;;;;;5039820;28;20512;-59
2021/12/29 07:04:19;;;;;;;12.70;5.90;;;5.90;99.90;;;;;;5040239;28;20500;-59
2021/12/29 07:06:46;;;;;;;5.83;4.03;;;5.90;99.90;;;;;;5039614;28;20763;-59
2021/12/29 07:09:16;;;;;;;9.97;5.17;;;5.90;99.90;;;;;;5039571;28;20510;-60
2021/12/29 07:11:43;;;;;;;7.07;4.27;;;5.90;99.90;;;;;;5040179;28;20491;-60
2021/12/29 07:14:10;;;;;;;7.60;4.77;;;5.90;99.90;;;;;;5039467;28;20519;-60
2021/12/29 07:16:38;;;;;;;5.00;3.30;;;5.90;99.90;;;;;;5039531;28;20456;-58
2021/12/29 07:19:06;;;;;;;10.70;5.03;;;5.90;99.90;;;;;;5039587;28;20440;-59
2021/12/29 07:21:33;;;;;;;5.87;3.27;;;5.90;99.90;;;;;;5039499;28;20829;-60
2021/12/29 07:24:00;;;;;;;14.50;5.30;;;5.90;99.90;;;;;;5039723;28;20983;-59
2021/12/29 07:26:28;;;;;;;8.33;4.90;;;5.90;99.90;;;;;;5039542;28;20483;-59
2021/12/29 07:28:56;;;;;;;5.57;3.83;;;5.90;99.90;;;;;;5040203;28;20432;-59
2021/12/29 07:31:23;;;;;;;11.57;4.40;;;5.90;99.90;;;;;;5039817;28;20826;-56
2021/12/29 07:33:49;;;;;;;6.13;4.20;;;5.90;99.90;;;;;;5039983;28;20445;-57
2021/12/29 07:36:17;;;;;;;6.90;5.27;;;5.90;99.90;;;;;;5038913;28;20456;-58
2021/12/29 07:38:44;;;;;;;5.43;4.93;;;5.90;99.90;;;;;;5051300;28;20441;-46
2021/12/29 07:41:12;;;;;;;7.83;4.93;;;5.90;99.90;;;;;;5056325;28;20493;-47
2021/12/29 07:43:40;;;;;;;12.10;4.47;;;5.90;99.90;;;;;;5055020;28;20468;-49
2021/12/29 07:46:08;;;;;;;7.30;4.20;;;5.90;99.90;;;;;;5055701;28;20456;-48
2021/12/29 07:48:35;;;;;;;6.47;5.23;;;6.00;99.90;;;;;;5055402;28;20473;-47
2021/12/29 07:51:04;;;;;;;6.67;4.90;;;5.90;99.90;;;;;;5055686;28;20449;-44
2021/12/29 07:53:31;;;;;;;8.93;4.90;;;6.00;99.90;;;;;;5055073;28;20483;-46
2021/12/29 07:55:58;;;;;;;9.80;5.20;;;6.00;99.90;;;;;;5055335;28;20445;-48
2021/12/29 07:58:25;;;;;;;11.00;4.87;;;6.00;99.90;;;;;;5056134;28;20495;-51
2021/12/29 08:00:53;;;;;;;8.93;4.20;;;6.00;99.90;;;;;;5054903;28;20536;-48
2021/12/29 08:03:22;;;;;;;7.87;5.10;;;6.00;99.90;;;;;;5055119;28;20468;-55
2021/12/29 08:05:49;;;;;;;7.63;5.63;;;6.00;99.90;;;;;;5055093;28;20448;-50
2021/12/29 08:08:15;;;;;;;9.13;4.90;;;6.00;99.90;;;;;;5055093;28;20469;-51
2021/12/29 08:10:42;;;;;;;9.20;5.60;;;6.00;99.90;;;;;;5054538;28;20441;-46
2021/12/29 08:13:10;;;;;;;13.63;5.60;;;6.00;99.90;;;;;;5051179;28;20459;-43
2021/12/29 08:15:37;;;;;;;9.40;4.37;;;6.10;99.90;;;;;;5051948;28;20524;-44
2021/12/29 08:18:06;;;;;;;7.50;4.50;;;6.10;99.90;;;;;;5051951;28;20445;-50
2021/12/29 08:20:35;;;;;;;7.53;5.63;;;6.10;99.90;;;;;;5052488;28;20503;-46
2021/12/29 08:23:03;;;;;;;9.77;5.37;;;6.10;99.90;;;;;;5052405;28;20456;-47
2021/12/29 08:25:30;;;;;;;8.60;5.00;;;6.10;99.90;;;;;;5051509;28;20460;-49
2021/12/29 08:27:57;;;;;;;9.90;5.00;;;6.10;99.90;;;;;;5053039;28;20463;-43
2021/12/29 08:30:25;;;;;;;9.37;5.67;;;6.10;99.90;;;;;;5052655;28;20460;-49
2021/12/29 08:32:51;;;;;;;9.70;4.00;;;6.10;99.90;;;;;;5052264;28;20444;-47
2021/12/29 08:35:20;;;;;;;7.80;3.90;;;6.00;99.90;;;;;;5052509;28;20444;-52
2021/12/29 08:37:47;;;;;;;9.57;4.17;;;6.00;99.90;;;;;;5052217;28;20451;-44
2021/12/29 08:40:14;;;;;;;9.90;4.80;;;6.00;99.90;;;;;;5052248;28;20495;-45
2021/12/29 08:42:42;;;;;;;12.37;5.17;;;6.00;99.90;;;;;;5052486;28;20946;-46
2021/12/29 08:45:11;;;;;;;7.97;5.13;;;6.10;99.90;;;;;;5052787;28;20468;-46
2021/12/29 08:47:38;;;;;;;7.17;4.67;;;6.10;99.90;;;;;;5052588;28;20461;-47
2021/12/29 08:50:08;;;;;;;7.80;5.57;;;6.00;99.90;;;;;;5051946;28;20476;-45
2021/12/29 08:52:37;;;;;;;8.83;4.50;;;6.10;99.90;;;;;;5052411;28;20444;-48
2021/12/29 08:55:05;;;;;;;7.27;4.17;;;6.10;99.90;;;;;;5051320;28;20480;-44
2021/12/29 08:57:32;;;;;;;13.40;6.90;;;6.10;99.90;;;;;;5052418;28;20471;-45
2021/12/29 08:59:58;;;;;;;9.87;4.83;;;6.20;99.90;;;;;;5054935;28;20464;-44
2021/12/29 09:02:25;;;;;;;10.13;5.43;;;6.20;99.90;;;;;;5054993;28;20535;-46
2021/12/29 09:04:52;;;;;;;9.77;5.20;;;6.20;99.90;;;;;;5055129;28;20460;-47
2021/12/29 09:07:19;;;;;;;9.43;5.37;;;6.20;99.90;;;;;;5055363;28;20451;-44
2021/12/29 09:09:47;;;;;;;6.80;4.50;;;6.30;99.90;;;;;;5055465;28;20836;-48
2021/12/29 09:12:14;;;;;;;12.50;6.10;;;6.40;99.90;;;;;;5054887;28;20451;-47
2021/12/29 09:14:41;;;;;;;10.93;6.20;;;6.30;99.90;;;;;;5054333;28;20457;-45
2021/12/29 09:17:07;;;;;;;9.13;4.50;;;6.30;99.90;;;;;;5054821;28;20765;-45
2021/12/29 09:19:39;;;;;;;9.53;4.27;;;6.40;99.90;;;;;;5054836;28;20445;-43
2021/12/29 09:22:06;;;;;;;9.60;5.10;;;6.40;99.90;;;;;;5055923;28;20479;-42
2021/12/29 09:24:33;;;;;;;12.63;5.77;;;6.40;99.90;;;;;;5056543;28;20506;-43
2021/12/29 09:27:01;;;;;;;16.80;5.87;;;6.50;99.90;;;;;;5056519;28;20471;-47
2021/12/29 09:29:32;;;;;;;7.70;4.90;;;6.50;99.90;;;;;;5055413;28;20472;-42
2021/12/29 09:31:59;;;;;;;8.10;4.83;;;6.50;99.90;;;;;;5056130;28;20452;-42
2021/12/29 09:34:26;;;;;;;12.60;6.40;;;6.50;99.90;;;;;;5055778;28;20441;-42
2021/12/29 09:36:53;;;;;;;7.00;4.63;;;6.50;99.90;;;;;;5054863;28;20475;-44
2021/12/29 09:39:20;;;;;;;11.13;6.40;;;6.50;99.90;;;;;;5054886;28;20440;-46
2021/12/29 09:41:46;;;;;;;8.90;4.63;;;6.60;99.90;;;;;;5054281;28;20484;-47
2021/12/29 09:44:15;;;;;;;13.00;7.03;;;6.60;99.90;;;;;;5054328;28;20441;-47
2021/12/29 09:46:42;;;;;;;9.13;5.67;;;6.70;99.90;;;;;;5055378;28;20465;-46
2021/12/29 09:49:09;;;;;;;13.13;5.60;;;6.70;99.90;;;;;;5054756;28;20488;-45
2021/12/29 09:51:36;;;;;;;11.00;6.43;;;6.80;99.90;;;;;;5055401;28;20495;-47
2021/12/29 09:54:03;;;;;;;16.77;6.90;;;6.90;99.90;;;;;;5054377;28;20890;-45
2021/12/29 09:56:30;;;;;;;8.20;4.73;;;6.90;99.90;;;;;;5054459;28;20481;-47
2021/12/29 09:58:59;;;;;;;12.80;6.60;;;6.90;99.90;;;;;;5053996;28;20444;-46
2021/12/29 10:01:27;;;;;;;8.40;5.97;;;6.90;99.90;;;;;;5054517;28;20503;-49
2021/12/29 10:03:54;;;;;;;14.43;5.80;;;6.90;99.90;;;;;;5054455;28;20422;-49
2021/12/29 10:06:21;;;;;;;9.37;5.10;;;6.90;99.90;;;;;;5054758;28;20536;-43
2021/12/29 10:08:49;;;;;;;7.30;5.17;;;6.90;99.90;;;;;;5052631;28;20447;-45
2021/12/29 10:11:25;;;;;;;19.50;7.40;;;6.90;99.90;;;;;;5052957;28;20457;-47
2021/12/29 10:13:52;;;;;;;17.80;6.50;;;6.90;99.90;;;;;;5053227;28;20430;-44
2021/12/29 10:16:24;;;;;;;11.90;5.33;;;6.90;99.90;;;;;;5053402;28;20445;-48
2021/12/29 10:18:59;;;;;;;22.43;5.80;;;6.90;99.90;;;;;;5053267;28;20433;-45
2021/12/29 10:21:26;;;;;;;28.00;8.20;;;7.00;99.90;;;;;;5052264;28;20476;-45
2021/12/29 10:23:55;;;;;;;77.70;10.70;;;7.00;99.90;;;;;;5052895;28;20440;-47
2021/12/29 10:26:24;;;;;;;12.37;7.33;;;7.10;99.90;;;;;;5052119;28;20450;-49
2021/12/29 10:28:53;;;;;;;26.80;7.20;;;7.10;99.90;;;;;;5052271;28;20433;-46
2021/12/29 10:31:21;;;;;;;15.27;6.90;;;7.10;99.90;;;;;;5051972;28;20480;-44
2021/12/29 10:33:50;;;;;;;34.67;8.90;;;7.10;99.90;;;;;;5051883;28;20491;-43
2021/12/29 10:36:24;;;;;;;23.33;7.13;;;7.20;99.90;;;;;;5052100;28;20445;-44
2021/12/29 10:38:58;;;;;;;13.60;7.07;;;7.20;99.90;;;;;;5051604;28;20452;-44
2021/12/29 10:41:25;;;;;;;17.73;7.20;;;7.10;99.90;;;;;;5051090;28;20507;-45
2021/12/29 10:43:57;;;;;;;15.63;5.87;;;7.10;99.90;;;;;;5051696;28;20755;-46
2021/12/29 10:46:26;;;;;;;22.03;9.73;;;7.20;99.90;;;;;;5052242;28;20441;-45
2021/12/29 10:48:54;;;;;;;11.50;7.33;;;7.20;99.90;;;;;;5051851;28;20476;-44
2021/12/29 10:51:27;;;;;;;23.03;8.43;;;7.20;99.90;;;;;;5051861;28;20445;-46
2021/12/29 10:54:03;;;;;;;14.30;6.53;;;7.30;99.90;;;;;;5051889;28;20761;-46
2021/12/29 10:56:30;;;;;;;12.57;6.53;;;7.30;99.90;;;;;;5034347;28;20456;-45
2021/12/29 10:58:56;;;;;;;24.23;6.50;;;7.30;99.90;;;;;;5051895;28;20440;-49
2021/12/29 11:01:24;;;;;;;15.70;7.23;;;7.30;99.90;;;;;;5052390;28;20480;-48
2021/12/29 11:03:55;;;;;;;13.33;7.00;;;7.30;99.90;;;;;;5053010;28;20468;-45
2021/12/29 11:06:25;;;;;;;23.23;8.10;;;7.30;99.90;;;;;;5052038;28;20434;-47
2021/12/29 11:08:54;;;;;;;10.20;6.20;;;7.30;99.90;;;;;;5051389;28;20456;-49
2021/12/29 11:11:25;;;;;;;26.73;8.60;;;7.30;99.90;;;;;;5050749;28;20483;-43
2021/12/29 11:13:56;;;;;;;17.90;9.40;;;7.20;99.90;;;;;;5050507;28;20476;-43
2021/12/29 11:16:23;;;;;;;19.97;7.70;;;7.20;99.90;;;;;;5050437;28;20456;-44
2021/12/29 11:18:51;;;;;;;20.43;6.90;;;7.20;99.90;;;;;;5049558;28;20480;-46
2021/12/29 11:21:26;;;;;;;11.67;5.23;;;7.20;99.90;;;;;;5038598;28;20481;-44
2021/12/29 11:23:53;;;;;;;21.30;9.63;;;7.20;99.90;;;;;;5054907;28;20463;-40
2021/12/29 11:26:28;;;;;;;16.43;6.70;;;7.20;99.90;;;;;;5058289;28;20416;-40
2021/12/29 13:28:05;;;;;;;9.73;4.80;;;7.10;99.90;;;;;;5746292;22;20482;-49
2021/12/29 13:30:37;;;;;;;13.27;6.03;;;7.10;99.90;;;;;;5078971;28;20467;-49
2021/12/29 13:33:04;;;;;;;14.50;6.10;;;7.10;99.90;;;;;;5078533;28;20415;-46
2021/12/29 13:35:33;;;;;;;9.53;4.60;;;7.10;99.90;;;;;;5078499;28;20459;-52
2021/12/29 13:38:02;;;;;;;14.00;6.23;;;7.00;99.90;;;;;;5074429;28;21032;-51
2021/12/29 13:40:31;;;;;;;12.70;6.73;;;7.00;99.90;;;;;;5056636;28;20459;-46
2021/12/29 13:42:58;;;;;;;13.10;6.10;;;7.10;99.90;;;;;;5056783;28;20521;-46
2021/12/29 13:45:28;;;;;;;13.30;6.47;;;7.10;99.90;;;;;;5055855;28;20912;-46
2021/12/29 13:47:55;;;;;;;9.47;4.60;;;7.10;99.90;;;;;;5056547;28;20467;-49
2021/12/29 13:50:22;;;;;;;14.80;7.17;;;7.10;99.90;;;;;;5056323;28;20475;-50
2021/12/29 13:53:02;;;;;;;11.23;5.93;;;7.10;99.90;;;;;;5056497;28;20474;-49
2021/12/29 13:55:32;;;;;;;12.33;5.90;;;7.00;99.90;;;;;;5056494;28;20447;-43
2021/12/29 13:57:59;;;;;;;11.20;4.93;;;6.90;99.90;;;;;;5056113;28;20459;-46
2021/12/29 14:00:29;;;;;;;11.63;6.23;;;6.90;99.90;;;;;;5056799;28;20455;-48
2021/12/29 14:02:56;;;;;;;14.83;6.60;;;6.80;99.90;;;;;;5056211;28;20562;-48
2021/12/29 14:05:23;;;;;;;12.67;6.83;;;6.80;99.90;;;;;;5056457;28;20500;-47
2021/12/29 14:07:50;;;;;;;22.53;8.07;;;6.80;99.90;;;;;;5055944;28;20937;-50
2021/12/29 14:10:18;;;;;;;15.23;6.17;;;6.80;99.90;;;;;;5056236;28;20444;-46
2021/12/29 14:12:45;;;;;;;11.27;5.30;;;6.80;99.90;;;;;;5056306;28;20900;-49
2021/12/29 14:15:16;;;;;;;13.70;6.43;;;6.80;99.90;;;;;;5055690;28;20959;-48
2021/12/29 14:17:47;;;;;;;16.90;6.90;;;6.80;99.90;;;;;;5056055;28;20539;-50
2021/12/29 14:20:16;;;;;;;13.57;6.53;;;6.80;99.90;;;;;;5055875;28;20476;-46
2021/12/29 14:22:44;;;;;;;15.53;3.87;;;6.80;99.90;;;;;;5055823;28;20491;-51
2021/12/29 14:25:14;;;;;;;13.30;6.63;;;6.80;99.90;;;;;;5056123;28;20468;-47
2021/12/29 14:27:48;;;;;;;15.53;6.37;;;6.80;99.90;;;;;;5055844;28;20464;-49
2021/12/29 14:30:17;;;;;;;8.67;4.30;;;6.80;99.90;;;;;;5055859;28;20732;-51
2021/12/29 14:32:56;;;;;;;9.93;5.20;;;6.80;99.90;;;;;;5055394;28;20907;-48
2021/12/29 14:35:23;;;;;;;9.40;4.83;;;6.80;99.90;;;;;;5055971;28;20431;-47
2021/12/29 14:37:50;;;;;;;17.90;6.80;;;6.80;99.90;;;;;;5055698;28;20471;-50
2021/12/29 14:40:28;;;;;;;17.27;6.17;;;6.70;99.90;;;;;;5055786;28;20448;-44
2021/12/29 14:42:55;;;;;;;14.50;5.53;;;6.70;99.90;;;;;;5055167;28;20491;-47
2021/12/29 14:45:21;;;;;;;11.83;7.27;;;6.70;99.90;;;;;;5055498;28;20456;-47
2021/12/29 14:47:50;;;;;;;12.13;5.40;;;6.60;99.90;;;;;;5055463;28;20963;-47
2021/12/29 14:50:21;;;;;;;11.37;5.87;;;6.60;99.90;;;;;;5055407;28;20471;-52
2021/12/29 14:52:49;;;;;;;18.40;6.83;;;6.60;99.90;;;;;;5054944;28;20889;-47
2021/12/29 14:55:19;;;;;;;11.13;5.20;;;6.60;99.90;;;;;;5054624;28;20439;-48